sensor_id;sensor_type;location;lat;lon;timestamp;P1;durP1;ratioP1;P2;durP2;ratioP2
33148;SDS011;19506;51.040;3.856;2023-04-25T14:50:04;19.90;;;3.08;;
33148;SDS011;19506;51.040;3.856;2023-04-25T14:52:31;12.82;;;4.03;;
33148;SDS011;19506;51.040;3.856;2023-04-25T14:54:56;14.65;;;3.63;;
33148;SDS011;19506;51.040;3.856;2023-04-25T14:57:22;11.95;;;3.47;;
33148;SDS011;19506;51.040;3.856;2023-04-25T14:59:48;13.38;;;4.57;;
33148;SDS011;19506;51.040;3.856;2023-04-25T15:02:13;9.70;;;3.60;;
33148;SDS011;19506;51.040;3.856;2023-04-25T15:04:39;16.45;;;3.22;;
33148;SDS011;19506;51.040;3.856;2023-04-25T15:07:05;15.68;;;3.35;;
33148;SDS011;19506;51.040;3.856;2023-04-25T15:09:30;6.63;;;3.13;;
33148;SDS011;19506;51.040;3.856;2023-04-25T15:11:57;9.65;;;3.35;;
33148;SDS011;19506;51.040;3.856;2023-04-25T15:14:23;6.70;;;3.15;;
33148;SDS011;19506;51.040;3.856;2023-04-25T15:16:48;13.55;;;3.45;;
33148;SDS011;19506;51.040;3.856;2023-04-25T15:19:14;11.38;;;3.30;;
33148;SDS011;19506;51.040;3.856;2023-04-25T15:21:40;10.60;;;3.33;;
33148;SDS011;19506;51.040;3.856;2023-04-25T15:24:06;16.48;;;3.22;;
33148;SDS011;19506;51.040;3.856;2023-04-25T15:26:32;16.27;;;3.72;;
33148;SDS011;19506;51.040;3.856;2023-04-25T15:28:58;11.82;;;3.47;;
33148;SDS011;19506;51.040;3.856;2023-04-25T15:31:23;7.97;;;3.22;;
33148;SDS011;19506;51.040;3.856;2023-04-25T15:33:49;20.75;;;5.22;;
33148;SDS011;19506;51.040;3.856;2023-04-25T15:36:15;16.60;;;3.67;;
33148;SDS011;19506;51.040;3.856;2023-04-25T15:38:42;22.67;;;5.40;;
33148;SDS011;19506;51.040;3.856;2023-04-25T15:41:08;17.33;;;5.65;;
33148;SDS011;19506;51.040;3.856;2023-04-25T15:43:34;17.90;;;5.00;;
33148;SDS011;19506;51.040;3.856;2023-04-25T15:46:02;15.93;;;3.83;;
33148;SDS011;19506;51.040;3.856;2023-04-25T15:48:29;12.60;;;4.20;;
33148;SDS011;19506;51.040;3.856;2023-04-25T15:50:56;16.10;;;3.72;;
33148;SDS011;19506;51.040;3.856;2023-04-25T15:53:22;8.07;;;3.95;;
33148;SDS011;19506;51.040;3.856;2023-04-25T15:55:48;14.07;;;4.25;;
33148;SDS011;19506;51.040;3.856;2023-04-25T15:58:13;14.38;;;4.97;;
33148;SDS011;19506;51.040;3.856;2023-04-25T16:00:39;23.65;;;4.90;;
33148;SDS011;19506;51.040;3.856;2023-04-25T16:03:05;14.25;;;4.18;;
33148;SDS011;19506;51.040;3.856;2023-04-25T16:05:31;13.02;;;4.13;;
33148;SDS011;19506;51.040;3.856;2023-04-25T16:07:57;15.10;;;4.15;;
33148;SDS011;19506;51.040;3.856;2023-04-25T16:10:22;14.35;;;4.75;;
33148;SDS011;19506;51.040;3.856;2023-04-25T16:12:48;17.58;;;4.75;;
33148;SDS011;19506;51.040;3.856;2023-04-25T16:15:15;11.13;;;5.03;;
33148;SDS011;19506;51.040;3.856;2023-04-25T16:17:41;10.35;;;4.60;;
33148;SDS011;19506;51.040;3.856;2023-04-25T16:20:07;9.48;;;4.00;;
33148;SDS011;19506;51.040;3.856;2023-04-25T16:22:37;9.45;;;4.07;;
33148;SDS011;19506;51.040;3.856;2023-04-25T16:25:04;13.98;;;5.32;;
33148;SDS011;19506;51.040;3.856;2023-04-25T16:27:30;35.25;;;10.23;;
33148;SDS011;19506;51.040;3.856;2023-04-25T16:29:58;34.97;;;13.57;;
33148;SDS011;19506;51.040;3.856;2023-04-25T16:32:24;46.30;;;17.15;;
33148;SDS011;19506;51.040;3.856;2023-04-25T16:34:50;58.10;;;23.58;;
33148;SDS011;19506;51.040;3.856;2023-04-25T16:37:16;79.45;;;29.45;;
33148;SDS011;19506;51.040;3.856;2023-04-25T16:39:42;84.97;;;35.25;;
33148;SDS011;19506;51.040;3.856;2023-04-25T16:42:07;113.22;;;42.72;;
33148;SDS011;19506;51.040;3.856;2023-04-25T16:44:33;115.95;;;47.42;;
33148;SDS011;19506;51.040;3.856;2023-04-25T16:46:59;125.18;;;49.90;;
33148;SDS011;19506;51.040;3.856;2023-04-25T16:49:25;152.18;;;55.28;;
33148;SDS011;19506;51.040;3.856;2023-04-25T16:51:51;152.65;;;59.30;;
33148;SDS011;19506;51.040;3.856;2023-04-25T16:54:16;141.98;;;60.80;;
33148;SDS011;19506;51.040;3.856;2023-04-25T16:56:42;158.32;;;64.20;;
33148;SDS011;19506;51.040;3.856;2023-04-25T16:59:08;189.55;;;75.57;;
33148;SDS011;19506;51.040;3.856;2023-04-25T17:01:33;196.93;;;83.20;;
33148;SDS011;19506;51.040;3.856;2023-04-25T17:04:00;224.98;;;90.47;;
33148;SDS011;19506;51.040;3.856;2023-04-25T17:06:25;218.27;;;92.30;;
33148;SDS011;19506;51.040;3.856;2023-04-25T17:08:51;215.82;;;91.82;;
33148;SDS011;19506;51.040;3.856;2023-04-25T17:11:17;215.35;;;93.53;;
33148;SDS011;19506;51.040;3.856;2023-04-25T17:13:44;215.00;;;92.50;;
33148;SDS011;19506;51.040;3.856;2023-04-25T17:16:09;220.45;;;94.45;;
33148;SDS011;19506;51.040;3.856;2023-04-25T17:18:41;229.45;;;94.57;;
33148;SDS011;19506;51.040;3.856;2023-04-25T17:21:08;205.68;;;92.07;;
33148;SDS011;19506;51.040;3.856;2023-04-25T17:23:33;224.15;;;92.00;;
33148;SDS011;19506;51.040;3.856;2023-04-25T17:25:59;220.15;;;95.55;;
33148;SDS011;19506;51.040;3.856;2023-04-25T17:28:26;218.38;;;93.35;;
33148;SDS011;19506;51.040;3.856;2023-04-25T17:30:52;215.73;;;93.40;;
33148;SDS011;19506;51.040;3.856;2023-04-25T17:33:17;214.90;;;88.85;;
33148;SDS011;19506;51.040;3.856;2023-04-25T17:35:43;207.98;;;93.75;;
33148;SDS011;19506;51.040;3.856;2023-04-25T17:38:09;208.23;;;90.10;;
33148;SDS011;19506;51.040;3.856;2023-04-25T17:40:34;204.07;;;87.45;;
33148;SDS011;19506;51.040;3.856;2023-04-25T17:43:00;199.20;;;86.93;;
33148;SDS011;19506;51.040;3.856;2023-04-25T17:45:26;181.45;;;85.25;;
33148;SDS011;19506;51.040;3.856;2023-04-25T17:47:52;199.55;;;85.05;;
33148;SDS011;19506;51.040;3.856;2023-04-25T17:50:18;203.70;;;85.43;;
33148;SDS011;19506;51.040;3.856;2023-04-25T17:52:44;191.88;;;81.63;;
33148;SDS011;19506;51.040;3.856;2023-04-25T17:55:12;168.23;;;79.18;;
33148;SDS011;19506;51.040;3.856;2023-04-25T17:57:38;190.93;;;81.20;;
33148;SDS011;19506;51.040;3.856;2023-04-25T18:00:04;185.80;;;78.80;;
33148;SDS011;19506;51.040;3.856;2023-04-25T18:02:31;175.00;;;78.10;;
33148;SDS011;19506;51.040;3.856;2023-04-25T18:05:01;169.38;;;78.32;;
33148;SDS011;19506;51.040;3.856;2023-04-25T18:07:32;179.57;;;78.80;;
33148;SDS011;19506;51.040;3.856;2023-04-25T18:10:02;159.85;;;74.35;;
33148;SDS011;19506;51.040;3.856;2023-04-25T18:12:32;161.90;;;75.95;;
33148;SDS011;19506;51.040;3.856;2023-04-25T18:14:59;164.88;;;75.07;;
33148;SDS011;19506;51.040;3.856;2023-04-25T18:17:25;163.50;;;74.07;;
33148;SDS011;19506;51.040;3.856;2023-04-25T18:19:50;157.05;;;72.05;;
33148;SDS011;19506;51.040;3.856;2023-04-25T18:22:16;163.80;;;75.05;;
33148;SDS011;19506;51.040;3.856;2023-04-25T18:24:42;165.10;;;72.78;;
33148;SDS011;19506;51.040;3.856;2023-04-25T18:27:10;159.43;;;72.32;;
33148;SDS011;19506;51.040;3.856;2023-04-25T18:29:36;154.57;;;71.05;;
33148;SDS011;19506;51.040;3.856;2023-04-25T18:32:02;166.68;;;71.60;;
33148;SDS011;19506;51.040;3.856;2023-04-25T18:34:29;157.25;;;71.50;;
33148;SDS011;19506;51.040;3.856;2023-04-25T18:36:55;156.70;;;68.90;;
33148;SDS011;19506;51.040;3.856;2023-04-25T18:39:21;150.45;;;68.88;;
33148;SDS011;19506;51.040;3.856;2023-04-25T18:41:48;154.93;;;68.10;;
33148;SDS011;19506;51.040;3.856;2023-04-25T18:44:13;156.43;;;67.80;;
33148;SDS011;19506;51.040;3.856;2023-04-25T18:46:39;144.40;;;68.18;;
33148;SDS011;19506;51.040;3.856;2023-04-25T18:49:07;149.32;;;66.30;;
33148;SDS011;19506;51.040;3.856;2023-04-25T18:51:33;131.43;;;64.47;;
33148;SDS011;19506;51.040;3.856;2023-04-25T18:53:59;142.95;;;64.55;;
33148;SDS011;19506;51.040;3.856;2023-04-25T18:56:26;137.05;;;64.28;;
